Auburn, WA

8:15 PM PDT on August 28, 2014 (GMT -0700)
Celery Ave | Change Station
CLOSE
Current Station
Personal Weather Station
Location: Algona, WA
Elevation: 66 ft
Nearby Weather Stations

Elev 66 ft 47.29 °N, 122.25 °W | Updated 14 minutes ago

Partly Cloudy
Partly Cloudy
70.4 °F
Feels Like 73 °F
N
0.0
Wind Variable Wind from SW
Gusts 1.0 mph

Today
High -- | Low -- °F
--% Chance of Precip.
Yesterday
High -- | Low -- °F
Precip. -- in
6:22 AM 7:56 PM
Waxing Crescent, 11% visible
Pressure 30.06 in
Visibility 10.0 miles
Clouds Scattered Clouds 3300 ft
Mostly Cloudy 25000 ft
Heat Index 73 °F
Dew Point 61 °F
Humidity 73%
Rainfall 0.00 in
Snow Depth Not available.
UV 0 out of 12
Pollen 3.50 out of 12
Air Quality Not available.
Flu Activity Not available.
METAR KSEA 290253Z 21003KT 10SM SCT033 BKN250 22/15 A3004 RMK AO2 SLP177 T02170150 56013 $

More Conditions Fewer Conditions

Pressure 30.06 in
Visibility 10.0 miles
Clouds Scattered Clouds 3300 ft
Mostly Cloudy 25000 ft
Heat Index 73 °F
Dew Point 61 °F
Humidity 73%
Rainfall 0.00 in
Snow Depth Not available.
UV 0 out of 12
Pollen 3.50 out of 12
Air Quality Not available.
Flu Activity Not available.
METAR KSEA 290253Z 21003KT 10SM SCT033 BKN250 22/15 A3004 RMK AO2 SLP177 T02170150 56013 $

More Conditions Fewer Conditions

10-Day Weather Forecast

Almanac

Astronomy

Aug. 28, 2014 Rise Set
Actual Time 6:22 AM PDT 7:56 PM PDT
Civil Twilight 5:50 AM PDT 8:28 PM PDT
Nautical Twilight 5:11 AM PDT 9:07 PM PDT
Astronomical Twilight 4:29 AM PDT 9:49 PM PDT
Moon 9:35 AM PDT (8/28) 9:07 PM PDT (8/28)
Length of Visible Light 14h 37m
Length of Day
13h 33m
Tomorrow will be 3m 14s shorter.
Waxing Crescent, 11% of the Moon is Illuminated
Today
Waxing Crescent
Sep 2
First Quarter
Sep 8
Full
Sep 15
Last Quarter
Sep 24
New

Today's Extremes

State Highs State Lows

Community

WunderPhotos

Upload Photos

1,748,146 photos uploaded!

Nearby

Air Quality

  Air Quality AQ Index Pollutant
Thursday Good
OZONE
Thursday Good
PM2.5
Friday Good
OZONE
Friday Good
PM2.5
Saturday Good
OZONE
Saturday Good
PM2.5

Snow Depth

Station Depth Elevation
Meadows Pass 0 in 3500 ft
Olallie Meadows 3 in 3700 ft
Alpine Meadows 0 in 3500 ft
Mount Crag 0 in 4050 ft
Dungeness 0 in 4100 ft

Earthquake Activity

City Distance Mag. Time & Date
No recent earthquake activity has been reported nearby.
Minimum magnitude displayed is 2.5.

Coastal Water Temperatures

Place Temperature
Port Townsend, WA 53.1 °F
Seattle, WA 55.9 °F
Friday Harbor, WA 53.1 °F
Tacoma, WA 55.9 °F

Nearby Weather Stations